Avisos AEMET Campiña SevillanaSin Avisos+ INFO
Sevilla, Andalucía, España
Idioma: es English Français Deutsch Italiano Português Español
 

Informes METAR

 

LEZL - Sevilla, Spain
Distancia de la estación: ENE 8km
Actualización: 27/05/2024 00:00
Despejado
Despejado
 Viento de SO
Viento: SO 11 km/h
Temperatura: 24°C
Rocío: 13°C
Humedad: 50%
Barómetro: 1015 hPa
Resumen: Despejado
Visibilidad: mayor de 10 km
2024/05/26 22:00 LEZL 262200Z 22006KT CAVOK 24/13 Q1015 NOSIG
LEMO - Morón, Spain
Distancia de la estación: SE 43km
Actualización: 27/05/2024 00:00
Despejado
Despejado
 Viento de S
Viento: S 15 km/h
Temperatura: 21°C
Rocío: 13°C
Humedad: 60%
Barómetro: 1016 hPa
Resumen: Despejado
Visibilidad: mayor de 10 km
2024/05/26 22:00 LEMO 262200Z 18008KT CAVOK 21/13 Q1016 NOSIG
LEJR - Jeréz, Spain
Distancia de la estación: S 71km
Actualización: 27/05/2024 00:00
Despejado
Despejado
 Viento de SE
Viento: SE 7 km/h
Temperatura: 20°C
Rocío: 15°C
Humedad: 73%
Barómetro: 1016 hPa
Resumen: Despejado
Visibilidad: mayor de 10 km
2024/05/26 22:00 LEJR 262200Z AUTO 13004KT CAVOK 20/15 Q1016
 
LERT - Rota, Spain
Distancia de la estación: SSO 89km
Actualización: 27/05/2024 00:00
Despejado
Despejado
 Viento de calm
Viento: Calma
Temperatura: 21°C
Rocío: 16°C
Humedad: 73%
Barómetro: 1016 hPa
Resumen: Despejado
Visibilidad: mayor de 10 km
2024/05/26 22:00 LERT 262200Z 00000KT CAVOK 21/16 Q1016 NOSIG
LEMG - Málaga, Spain
Distancia de la estación: ESE 157km
Actualización: 27/05/2024 00:00
Despejado
Despejado
 Viento de variable
Viento: variable 4 km/h
Temperatura: 19°C
Rocío: 16°C
Humedad: 83%
Barómetro: 1016 hPa
Resumen: Despejado
Visibilidad: mayor de 10 km
2024/05/26 22:00 LEMG 262200Z VRB02KT CAVOK 19/16 Q1016 NOSIG
LEBA - Córdoba, Spain
Distancia de la estación: ENE 115km
Actualización: 27/05/2024 00:00
Despejado
Despejado
 Viento de SO
Viento: SO 9 km/h
Temperatura: 22°C
Rocío: 11°C
Humedad: 50%
Barómetro: 1015 hPa
Resumen: Despejado
Visibilidad: mayor de 10 km
2024/05/26 22:00 LEBA 262200Z AUTO 22005KT CAVOK 22/11 Q1015
 
LEGR - Granada, Spain
Distancia de la estación: E 198km
Actualización: 27/05/2024 00:00
Despejado
Despejado
 Viento de SO
Viento: SO 9 km/h
Temperatura: 23°C
Rocío: 9°C
Humedad: 41%
Barómetro: 1018 hPa
Resumen: Despejado
Visibilidad: mayor de 10 km
2024/05/26 22:00 LEGR 262200Z 22005KT CAVOK 23/09 Q1018
LEAM - Almería, Spain
Distancia de la estación: E 326km
Actualización: 27/05/2024 00:00
Despejado
Despejado
 Viento de E
Viento: E 6 km/h
Temperatura: 20°C
Rocío: 18°C
Humedad: 88%
Barómetro: 1016 hPa
Resumen: Despejado
Visibilidad: mayor de 10 km
2024/05/26 22:00 LEAM 262200Z AUTO 10003KT 050V120 CAVOK 20/18 Q1016
LEMD - Madrid/Barajas, Spain
Distancia de la estación: NNE 402km
Actualización: 27/05/2024 00:00
Despejado
Despejado
 Viento de NNO
Viento: NNO 6 km/h
Temperatura: 22°C
Rocío: 10°C
Humedad: 47%
Barómetro: 1017 hPa
Resumen: Despejado
Visibilidad: mayor de 10 km
2024/05/26 22:00 LEMD 262200Z 34003KT 300V020 CAVOK 22/10 Q1017 NOSIG
 
LEVD - Valladolid, Spain
Distancia de la estación: N 492km
Actualización: 27/05/2024 00:00
Despejado
Despejado
 Viento de NE
Viento: NE 13 km/h
Temperatura: 11°C
Rocío: 9°C
Humedad: 88%
Barómetro: 1020 hPa
Resumen: Despejado
Visibilidad: mayor de 10 km
2024/05/26 22:00 LEVD 262200Z AUTO 05007KT 010V080 CAVOK 11/09 Q1020
LEBL - Barcelona, Spain
Distancia de la estación: NE 816km
Actualización: 27/05/2024 00:00
Poco nuboso
Poco nuboso
 Viento de ENE
Viento: ENE 13 km/h
Temperatura: 20°C
Rocío: 17°C
Humedad: 83%
Barómetro: 1018 hPa
Nubes: Poco nuboso
Visibilidad: 10 km
Detalles de las nubes: Poco nuboso 610 m
2024/05/26 22:00 LEBL 262200Z 07007KT 040V100 9999 FEW020 20/17 Q1018 NOSIG
LEVC - Valencia, Spain
Distancia de la estación: ENE 535km
Actualización: 27/05/2024 00:00
Parcialmente nuboso
Parcialmente nuboso
 Viento de ENE
Viento: ENE 6 km/h
Temperatura: 21°C
Rocío: 18°C
Humedad: 83%
Barómetro: 1018 hPa
Nubes: Parcialmente nuboso
Visibilidad: 10 km
Detalles de las nubes: Parcialmente nuboso 305 m
2024/05/26 22:00 LEVC 262200Z 07003KT 020V120 9999 SCT010 21/18 Q1018 TEMPO BKN010